THY2KF LCEN-LTFM
Flight info
| Callsign | THY2KF |
|---|---|
| Flight time | N/A |
| Altitude | 36000 |
| Route | GIRNE DCT DOREN UA28 MUT UL619 OSVEL UB545 KFK UM855 SISPI |
| Aircraft | A320/M-SDE3FGHIRWY/LB1 |
Departure
| Time | N/A |
|---|---|
| Airport | Ercan International Airport (LCEN) |
Arrival
| Time | 2026-05-05 13:07 |
|---|---|
| Airport | İstanbul Airport (LTFM) |
| Time | Latitude | Longitude | Altitude | Speed | Heading |
|---|---|---|---|---|---|
| 2026-05-05 12:46 | 40.86679 | 29.69256 | 25439 ft | 363 kts | 270° |
| 2026-05-05 12:46 | 40.86629 | 29.65931 | 25082 ft | 361 kts | 270° |
| 2026-05-05 12:46 | 40.86785 | 29.62639 | 24751 ft | 357 kts | 279° |
| 2026-05-05 12:46 | 40.87128 | 29.59396 | 24371 ft | 355 kts | 279° |
| 2026-05-05 12:47 | 40.87468 | 29.56173 | 23984 ft | 353 kts | 279° |
| 2026-05-05 12:47 | 40.87801 | 29.52971 | 23651 ft | 349 kts | 279° |
| 2026-05-05 12:47 | 40.88382 | 29.49933 | 23515 ft | 335 kts | 298° |
| 2026-05-05 12:47 | 40.89827 | 29.47650 | 23290 ft | 319 kts | 326° |
| 2026-05-05 12:48 | 40.91837 | 29.46585 | 22742 ft | 311 kts | 352° |
| 2026-05-05 12:48 | 40.93979 | 29.46361 | 22063 ft | 309 kts | 356° |
| 2026-05-05 12:48 | 40.96123 | 29.46261 | 21421 ft | 307 kts | 358° |
| 2026-05-05 12:48 | 40.98223 | 29.45964 | 20832 ft | 302 kts | 345° |
| 2026-05-05 12:49 | 41.00233 | 29.45220 | 20234 ft | 299 kts | 343° |
| 2026-05-05 12:49 | 41.02210 | 29.44421 | 19665 ft | 296 kts | 342° |
| 2026-05-05 12:49 | 41.04163 | 29.43592 | 19122 ft | 293 kts | 341° |
| 2026-05-05 12:49 | 41.06076 | 29.42712 | 18562 ft | 290 kts | 335° |
| 2026-05-05 12:50 | 41.07795 | 29.41354 | 17961 ft | 287 kts | 327° |
| 2026-05-05 12:50 | 41.09459 | 29.39916 | 17351 ft | 284 kts | 327° |
| 2026-05-05 12:50 | 41.11112 | 29.38498 | 16757 ft | 282 kts | 328° |
| 2026-05-05 12:50 | 41.12752 | 29.37096 | 16178 ft | 279 kts | 328° |
| 2026-05-05 12:51 | 41.14272 | 29.35570 | 15621 ft | 277 kts | 316° |
| 2026-05-05 12:51 | 41.15585 | 29.33665 | 15046 ft | 275 kts | 314° |
| 2026-05-05 12:51 | 41.16864 | 29.31788 | 14489 ft | 273 kts | 315° |
| 2026-05-05 12:51 | 41.17887 | 29.29719 | 14005 ft | 274 kts | 292° |
| 2026-05-05 12:52 | 41.18079 | 29.27203 | 13441 ft | 281 kts | 263° |
| 2026-05-05 12:52 | 41.17285 | 29.24834 | 12864 ft | 287 kts | 232° |
| 2026-05-05 12:52 | 41.15741 | 29.23129 | 12249 ft | 291 kts | 217° |
| 2026-05-05 12:52 | 41.14074 | 29.21610 | 11653 ft | 291 kts | 217° |
| 2026-05-05 12:53 | 41.12402 | 29.20113 | 11114 ft | 289 kts | 217° |
| 2026-05-05 12:53 | 41.10742 | 29.18632 | 10612 ft | 286 kts | 217° |
| 2026-05-05 12:53 | 41.09097 | 29.17155 | 10141 ft | 286 kts | 217° |
| 2026-05-05 12:53 | 41.07458 | 29.15679 | 9871 ft | 284 kts | 217° |
| 2026-05-05 12:54 | 41.04210 | 29.12749 | 9288 ft | 280 kts | 217° |
| 2026-05-05 12:54 | 41.02605 | 29.11294 | 8995 ft | 279 kts | 217° |
| 2026-05-05 12:54 | 41.01013 | 29.09847 | 8717 ft | 276 kts | 217° |
| 2026-05-05 12:55 | 40.99964 | 29.08896 | 8531 ft | 275 kts | 217° |
| 2026-05-05 12:55 | 40.98385 | 29.07468 | 8250 ft | 274 kts | 217° |
| 2026-05-05 12:55 | 40.96818 | 29.06058 | 7976 ft | 272 kts | 217° |
| 2026-05-05 12:55 | 40.95258 | 29.04655 | 7710 ft | 270 kts | 217° |
| 2026-05-05 12:56 | 40.93715 | 29.03263 | 7443 ft | 268 kts | 217° |
| 2026-05-05 12:56 | 40.92232 | 29.01818 | 7284 ft | 259 kts | 227° |
| 2026-05-05 12:56 | 40.91141 | 29.00009 | 7100 ft | 248 kts | 245° |
| 2026-05-05 12:56 | 40.90510 | 28.97932 | 6831 ft | 241 kts | 259° |
| 2026-05-05 12:57 | 40.90074 | 28.95794 | 6548 ft | 240 kts | 258° |
| 2026-05-05 12:57 | 40.89629 | 28.93663 | 6230 ft | 239 kts | 258° |
| 2026-05-05 12:57 | 40.89184 | 28.91545 | 5920 ft | 239 kts | 258° |
| 2026-05-05 12:57 | 40.88741 | 28.89439 | 5610 ft | 238 kts | 258° |
| 2026-05-05 12:58 | 40.88298 | 28.87338 | 5305 ft | 237 kts | 258° |
| 2026-05-05 12:58 | 40.87857 | 28.85253 | 5056 ft | 234 kts | 258° |
| 2026-05-05 12:58 | 40.87607 | 28.83156 | 5004 ft | 230 kts | 277° |
| 2026-05-05 12:58 | 40.88032 | 28.81161 | 5004 ft | 225 kts | 302° |
| 2026-05-05 12:59 | 40.89053 | 28.79637 | 5008 ft | 222 kts | 327° |
| 2026-05-05 12:59 | 40.90396 | 28.78698 | 5008 ft | 222 kts | 335° |
| 2026-05-05 12:59 | 40.91786 | 28.77814 | 5010 ft | 222 kts | 335° |
| 2026-05-05 13:00 | 40.94504 | 28.75880 | 5004 ft | 221 kts | 330° |
| 2026-05-05 13:00 | 40.95787 | 28.74854 | 5006 ft | 213 kts | 330° |
| 2026-05-05 13:01 | 40.99902 | 28.73288 | 5007 ft | 203 kts | 358° |
| 2026-05-05 13:01 | 41.01266 | 28.73259 | 5002 ft | 188 kts | 358° |
| 2026-05-05 13:01 | 41.02544 | 28.73234 | 4963 ft | 181 kts | 358° |
| 2026-05-05 13:01 | 41.03781 | 28.73210 | 4735 ft | 174 kts | 358° |
| 2026-05-05 13:02 | 41.04966 | 28.73187 | 4513 ft | 168 kts | 358° |
| 2026-05-05 13:02 | 41.06133 | 28.73164 | 4288 ft | 167 kts | 359° |
| 2026-05-05 13:02 | 41.07299 | 28.73142 | 4061 ft | 168 kts | 358° |
| 2026-05-05 13:02 | 41.08465 | 28.73119 | 3835 ft | 167 kts | 359° |
| 2026-05-05 13:03 | 41.09633 | 28.73096 | 3606 ft | 168 kts | 359° |
| 2026-05-05 13:03 | 41.10809 | 28.73074 | 3376 ft | 169 kts | 359° |
| 2026-05-05 13:03 | 41.11985 | 28.73051 | 3154 ft | 169 kts | 359° |
| 2026-05-05 13:03 | 41.13162 | 28.73029 | 2921 ft | 169 kts | 359° |
| 2026-05-05 13:04 | 41.14330 | 28.73006 | 2692 ft | 168 kts | 359° |
| 2026-05-05 13:04 | 41.15504 | 28.72983 | 2465 ft | 169 kts | 359° |
| 2026-05-05 13:04 | 41.16677 | 28.72961 | 2234 ft | 168 kts | 359° |
| 2026-05-05 13:04 | 41.17835 | 28.72938 | 2003 ft | 161 kts | 359° |
| 2026-05-05 13:05 | 41.18900 | 28.72917 | 1809 ft | 146 kts | 359° |
| 2026-05-05 13:05 | 41.19879 | 28.72898 | 1605 ft | 138 kts | 359° |
| 2026-05-05 13:05 | 41.20827 | 28.72878 | 1431 ft | 135 kts | 359° |
| 2026-05-05 13:05 | 41.21762 | 28.72869 | 1223 ft | 133 kts | 359° |
| 2026-05-05 13:06 | 41.22691 | 28.72849 | 1067 ft | 133 kts | 360° |
| 2026-05-05 13:06 | 41.23603 | 28.72829 | 882 ft | 132 kts | 0° |
| 2026-05-05 13:06 | 41.24528 | 28.72812 | 702 ft | 131 kts | 0° |
| 2026-05-05 13:06 | 41.25427 | 28.72798 | 521 ft | 129 kts | 360° |
| 2026-05-05 13:07 | 41.26325 | 28.72776 | 360 ft | 129 kts | 0° |
| 2026-05-05 13:07 | 41.27122 | 28.72757 | 331 ft | 94 kts | 358° |
| 2026-05-05 13:07 | 41.27601 | 28.72745 | 334 ft | 51 kts | 359° |
| 2026-05-05 13:07 | 41.27894 | 28.72746 | 334 ft | 28 kts | 4° |
| 2026-05-05 13:08 | 41.28051 | 28.72823 | 334 ft | 20 kts | 29° |
| 2026-05-05 13:08 | 41.28130 | 28.72887 | 331 ft | 11 kts | 47° |
| 2026-05-05 13:08 | 41.28096 | 28.72963 | 332 ft | 12 kts | 176° |
| 2026-05-05 13:08 | 41.27999 | 28.72961 | 330 ft | 15 kts | 175° |
| 2026-05-05 13:09 | 41.27882 | 28.72966 | 331 ft | 18 kts | 179° |
| 2026-05-05 13:09 | 41.27744 | 28.72968 | 331 ft | 21 kts | 179° |
| 2026-05-05 13:09 | 41.27608 | 28.72972 | 334 ft | 16 kts | 179° |
| 2026-05-05 13:09 | 41.27488 | 28.72974 | 334 ft | 15 kts | 179° |
| 2026-05-05 13:10 | 41.27371 | 28.72977 | 333 ft | 18 kts | 179° |
| 2026-05-05 13:10 | 41.27240 | 28.72981 | 333 ft | 15 kts | 179° |
| 2026-05-05 13:10 | 41.27124 | 28.72983 | 332 ft | 18 kts | 179° |
| 2026-05-05 13:10 | 41.26989 | 28.72987 | 334 ft | 21 kts | 179° |
| 2026-05-05 13:11 | 41.26883 | 28.73001 | 331 ft | 11 kts | 148° |
| 2026-05-05 13:11 | 41.26866 | 28.73103 | 334 ft | 13 kts | 89° |
| 2026-05-05 13:11 | 41.26867 | 28.73228 | 331 ft | 14 kts | 89° |
| 2026-05-05 13:11 | 41.26869 | 28.73367 | 332 ft | 13 kts | 89° |
| 2026-05-05 13:12 | 41.26859 | 28.73426 | 334 ft | 6 kts | 130° |
| 2026-05-05 13:12 | 41.26814 | 28.73441 | 332 ft | 7 kts | 181° |
| 2026-05-05 13:12 | 41.26783 | 28.73442 | 330 ft | 2 kts | 178° |
| 2026-05-05 13:12 | 41.26778 | 28.73442 | 330 ft | 0 kts | 178° |